UAE9817 VAAH-OMDW
Flight info
| Callsign | UAE9817 |
|---|---|
| Flight time | N/A |
| Altitude | 38000 |
| Route | AAE L639 RASKI L301 RAGMA N571 VUSET A454 PASOV M564 VAXAS/N0395F240 M564 UMAMI |
| Aircraft | B77L/H-SDE1E2E3FGHIJ2J3J4J5M1RWXY/LB1D1 |
Departure
| Time | N/A |
|---|---|
| Airport | Sardar Vallabh Patel International Airport (VAAH) |
Arrival
| Time | 2026-04-30 02:38 |
|---|---|
| Airport | Al Maktoum International Airport (OMDW) |
| Time | Latitude | Longitude | Altitude | Speed | Heading |
|---|---|---|---|---|---|
| 2026-04-30 00:21 | 23.00145 | 72.14767 | 18797 ft | 385 kts | 264° |
| 2026-04-30 00:21 | 22.99733 | 72.11888 | 19586 ft | 388 kts | 264° |
| 2026-04-30 00:21 | 22.99317 | 72.08983 | 20357 ft | 391 kts | 264° |
| 2026-04-30 00:22 | 22.98898 | 72.06056 | 21132 ft | 394 kts | 264° |
| 2026-04-30 00:22 | 22.98480 | 72.03141 | 21903 ft | 397 kts | 265° |
| 2026-04-30 00:22 | 22.98054 | 72.00173 | 22655 ft | 400 kts | 265° |
| 2026-04-30 00:22 | 22.97622 | 71.97172 | 23379 ft | 404 kts | 265° |
| 2026-04-30 00:23 | 22.97187 | 71.94149 | 23950 ft | 408 kts | 265° |
| 2026-04-30 00:23 | 22.96746 | 71.91088 | 24466 ft | 414 kts | 265° |
| 2026-04-30 00:23 | 22.96298 | 71.87979 | 24995 ft | 419 kts | 265° |
| 2026-04-30 00:23 | 22.95843 | 71.84831 | 25524 ft | 424 kts | 265° |
| 2026-04-30 00:24 | 22.95382 | 71.81650 | 26041 ft | 429 kts | 265° |
| 2026-04-30 00:24 | 22.94915 | 71.78431 | 26535 ft | 434 kts | 266° |
| 2026-04-30 00:24 | 22.94442 | 71.75172 | 27017 ft | 439 kts | 266° |
| 2026-04-30 00:24 | 22.93969 | 71.71922 | 27482 ft | 444 kts | 266° |
| 2026-04-30 00:25 | 22.93484 | 71.68598 | 27945 ft | 448 kts | 266° |
| 2026-04-30 00:25 | 22.92995 | 71.65245 | 28398 ft | 453 kts | 266° |
| 2026-04-30 00:25 | 22.92499 | 71.61857 | 28831 ft | 457 kts | 266° |
| 2026-04-30 00:25 | 22.91998 | 71.58430 | 29240 ft | 461 kts | 266° |
| 2026-04-30 00:26 | 22.91491 | 71.54973 | 29635 ft | 465 kts | 266° |
| 2026-04-30 00:26 | 22.90979 | 71.51493 | 30027 ft | 468 kts | 266° |
| 2026-04-30 00:26 | 22.90464 | 71.48001 | 30403 ft | 470 kts | 266° |
| 2026-04-30 00:26 | 22.89947 | 71.44497 | 30784 ft | 472 kts | 266° |
| 2026-04-30 00:27 | 22.89427 | 71.40980 | 31137 ft | 473 kts | 265° |
| 2026-04-30 00:27 | 22.88905 | 71.37455 | 31579 ft | 472 kts | 265° |
| 2026-04-30 00:27 | 22.88384 | 71.33945 | 32109 ft | 470 kts | 265° |
| 2026-04-30 00:27 | 22.87871 | 71.30496 | 32642 ft | 467 kts | 265° |
| 2026-04-30 00:28 | 22.87355 | 71.27026 | 33189 ft | 465 kts | 265° |
| 2026-04-30 00:28 | 22.86842 | 71.23574 | 33698 ft | 463 kts | 265° |
| 2026-04-30 00:28 | 22.86328 | 71.20126 | 34142 ft | 462 kts | 265° |
| 2026-04-30 00:28 | 22.85816 | 71.16689 | 34568 ft | 461 kts | 265° |
| 2026-04-30 00:29 | 22.85304 | 71.13258 | 34978 ft | 460 kts | 265° |
| 2026-04-30 00:29 | 22.84793 | 71.09838 | 35407 ft | 459 kts | 265° |
| 2026-04-30 00:29 | 22.84282 | 71.06429 | 35821 ft | 457 kts | 265° |
| 2026-04-30 00:29 | 22.83777 | 71.03059 | 36234 ft | 456 kts | 265° |
| 2026-04-30 00:30 | 22.83268 | 70.99671 | 36643 ft | 455 kts | 265° |
| 2026-04-30 00:30 | 22.82758 | 70.96282 | 37043 ft | 454 kts | 265° |
| 2026-04-30 00:30 | 22.82250 | 70.92902 | 37439 ft | 453 kts | 265° |
| 2026-04-30 00:30 | 22.81741 | 70.89529 | 37797 ft | 453 kts | 265° |
| 2026-04-30 00:31 | 22.81247 | 70.86138 | 37758 ft | 457 kts | 267° |
| 2026-04-30 00:31 | 22.80986 | 70.79293 | 37763 ft | 451 kts | 277° |
| 2026-04-30 00:32 | 22.81445 | 70.72553 | 37771 ft | 446 kts | 277° |
| 2026-04-30 00:32 | 22.81900 | 70.65897 | 37771 ft | 445 kts | 277° |
| 2026-04-30 00:33 | 22.82335 | 70.59209 | 37771 ft | 444 kts | 277° |
| 2026-04-30 00:33 | 22.82758 | 70.52512 | 37758 ft | 445 kts | 277° |
| 2026-04-30 00:34 | 22.83176 | 70.45813 | 37787 ft | 446 kts | 277° |
| 2026-04-30 00:34 | 22.83589 | 70.39135 | 37774 ft | 447 kts | 277° |
| 2026-04-30 00:35 | 22.84003 | 70.32413 | 37773 ft | 447 kts | 277° |
| 2026-04-30 00:35 | 22.84415 | 70.25675 | 37772 ft | 448 kts | 277° |
| 2026-04-30 00:36 | 22.84825 | 70.18934 | 37765 ft | 448 kts | 277° |
| 2026-04-30 00:36 | 22.85232 | 70.12190 | 37765 ft | 448 kts | 277° |
| 2026-04-30 00:37 | 22.85636 | 70.05432 | 37767 ft | 449 kts | 277° |
| 2026-04-30 00:37 | 22.86038 | 69.98675 | 37768 ft | 449 kts | 277° |
| 2026-04-30 00:38 | 22.86435 | 69.91961 | 37768 ft | 449 kts | 277° |
| 2026-04-30 00:38 | 22.86831 | 69.85205 | 37756 ft | 449 kts | 276° |
| 2026-04-30 00:39 | 22.87224 | 69.78447 | 37767 ft | 449 kts | 276° |
| 2026-04-30 00:39 | 22.87616 | 69.71678 | 37768 ft | 450 kts | 276° |
| 2026-04-30 00:40 | 22.87958 | 69.66010 | 37766 ft | 450 kts | 277° |
| 2026-04-30 00:40 | 22.88398 | 69.59291 | 37768 ft | 450 kts | 277° |
| 2026-04-30 00:41 | 22.88843 | 69.52515 | 37760 ft | 450 kts | 277° |
| 2026-04-30 00:41 | 22.89280 | 69.45744 | 37764 ft | 450 kts | 277° |
| 2026-04-30 00:42 | 22.89712 | 69.38950 | 37759 ft | 451 kts | 277° |
| 2026-04-30 00:42 | 22.90141 | 69.32156 | 37762 ft | 451 kts | 277° |
| 2026-04-30 00:43 | 22.90567 | 69.25363 | 37764 ft | 451 kts | 277° |
| 2026-04-30 00:43 | 22.90987 | 69.18615 | 37750 ft | 452 kts | 276° |
| 2026-04-30 00:44 | 22.91408 | 69.11814 | 37760 ft | 452 kts | 276° |
| 2026-04-30 00:44 | 22.91827 | 69.05004 | 37758 ft | 452 kts | 276° |
| 2026-04-30 00:45 | 22.92245 | 68.98149 | 37757 ft | 453 kts | 276° |
| 2026-04-30 00:45 | 22.92656 | 68.91376 | 37756 ft | 453 kts | 276° |
| 2026-04-30 00:46 | 22.93066 | 68.84552 | 37748 ft | 452 kts | 276° |
| 2026-04-30 00:46 | 22.93473 | 68.77745 | 37752 ft | 452 kts | 276° |
| 2026-04-30 00:47 | 22.93876 | 68.70938 | 37759 ft | 451 kts | 276° |
| 2026-04-30 00:47 | 22.94276 | 68.64155 | 37758 ft | 450 kts | 276° |
| 2026-04-30 00:48 | 22.94669 | 68.57420 | 37756 ft | 450 kts | 276° |
| 2026-04-30 00:48 | 22.95063 | 68.50647 | 37748 ft | 450 kts | 276° |
| 2026-04-30 00:49 | 22.95453 | 68.43872 | 37760 ft | 450 kts | 276° |
| 2026-04-30 00:49 | 22.95817 | 68.37084 | 37755 ft | 451 kts | 274° |
| 2026-04-30 00:50 | 22.95853 | 68.30253 | 37752 ft | 453 kts | 272° |
| 2026-04-30 00:50 | 22.95829 | 68.23421 | 37755 ft | 453 kts | 272° |
| 2026-04-30 00:51 | 22.95819 | 68.16582 | 37742 ft | 454 kts | 272° |
| 2026-04-30 00:51 | 22.95818 | 68.09735 | 37755 ft | 454 kts | 272° |
| 2026-04-30 00:52 | 22.95817 | 68.02867 | 37756 ft | 455 kts | 272° |
| 2026-04-30 00:52 | 22.95811 | 67.95999 | 37753 ft | 455 kts | 272° |
| 2026-04-30 00:53 | 22.95803 | 67.89130 | 37750 ft | 456 kts | 272° |
| 2026-04-30 00:53 | 22.95804 | 67.82250 | 37750 ft | 456 kts | 272° |
| 2026-04-30 00:54 | 22.95823 | 67.75378 | 37755 ft | 455 kts | 272° |
| 2026-04-30 00:54 | 22.95840 | 67.68547 | 37753 ft | 455 kts | 272° |
| 2026-04-30 00:55 | 22.95852 | 67.61640 | 37749 ft | 455 kts | 272° |
| 2026-04-30 00:55 | 22.95861 | 67.51393 | 37749 ft | 455 kts | 272° |
| 2026-04-30 00:56 | 22.95864 | 67.44528 | 37746 ft | 455 kts | 272° |
| 2026-04-30 00:56 | 22.95864 | 67.37666 | 37746 ft | 455 kts | 272° |
| 2026-04-30 00:57 | 22.95860 | 67.30807 | 37745 ft | 455 kts | 272° |
| 2026-04-30 00:57 | 22.95854 | 67.23932 | 37745 ft | 455 kts | 272° |
| 2026-04-30 00:58 | 22.95845 | 67.17057 | 37748 ft | 456 kts | 272° |
| 2026-04-30 00:58 | 22.95833 | 67.10178 | 37746 ft | 456 kts | 272° |
| 2026-04-30 00:59 | 22.95818 | 67.03299 | 37759 ft | 456 kts | 272° |
| 2026-04-30 00:59 | 22.95801 | 66.96419 | 37747 ft | 456 kts | 272° |
| 2026-04-30 01:00 | 22.95823 | 66.89545 | 37746 ft | 454 kts | 272° |
| 2026-04-30 01:00 | 22.95874 | 66.82689 | 37748 ft | 454 kts | 272° |
| 2026-04-30 01:01 | 22.95920 | 66.75886 | 37749 ft | 454 kts | 272° |
| 2026-04-30 01:01 | 22.95959 | 66.68997 | 37749 ft | 454 kts | 272° |
| 2026-04-30 01:02 | 22.95991 | 66.62149 | 37746 ft | 454 kts | 272° |
| 2026-04-30 01:02 | 22.96020 | 66.55345 | 37738 ft | 454 kts | 272° |
| 2026-04-30 01:03 | 22.96047 | 66.48488 | 37747 ft | 455 kts | 272° |
| 2026-04-30 01:03 | 22.96071 | 66.41617 | 37741 ft | 456 kts | 272° |
| 2026-04-30 01:04 | 22.96092 | 66.34738 | 37742 ft | 456 kts | 272° |
| 2026-04-30 01:04 | 22.96110 | 66.27844 | 37743 ft | 457 kts | 272° |
| 2026-04-30 01:05 | 22.96125 | 66.20943 | 37751 ft | 457 kts | 271° |
| 2026-04-30 01:05 | 22.96137 | 66.14044 | 37740 ft | 458 kts | 271° |
| 2026-04-30 01:06 | 22.96145 | 66.07130 | 37755 ft | 458 kts | 271° |
| 2026-04-30 01:06 | 22.96151 | 66.00224 | 37745 ft | 458 kts | 271° |
| 2026-04-30 01:07 | 22.96154 | 65.93345 | 37746 ft | 458 kts | 271° |
| 2026-04-30 01:07 | 22.96155 | 65.86435 | 37745 ft | 458 kts | 271° |
| 2026-04-30 01:08 | 22.96151 | 65.79514 | 37757 ft | 458 kts | 271° |
| 2026-04-30 01:08 | 22.96146 | 65.72593 | 37746 ft | 458 kts | 271° |
| 2026-04-30 01:09 | 22.96137 | 65.65679 | 37752 ft | 458 kts | 271° |
| 2026-04-30 01:09 | 22.96125 | 65.58760 | 37744 ft | 458 kts | 271° |
| 2026-04-30 01:10 | 22.96110 | 65.51852 | 37745 ft | 458 kts | 271° |
| 2026-04-30 01:10 | 22.96092 | 65.44938 | 37757 ft | 458 kts | 271° |
| 2026-04-30 01:11 | 22.96071 | 65.38023 | 37760 ft | 458 kts | 271° |
| 2026-04-30 01:11 | 22.96047 | 65.31108 | 37749 ft | 458 kts | 271° |
| 2026-04-30 01:12 | 22.96020 | 65.24202 | 37756 ft | 458 kts | 270° |
| 2026-04-30 01:12 | 22.95990 | 65.17291 | 37760 ft | 458 kts | 270° |
| 2026-04-30 01:13 | 22.95957 | 65.10374 | 37743 ft | 458 kts | 270° |
| 2026-04-30 01:13 | 22.95921 | 65.03466 | 37755 ft | 458 kts | 270° |
| 2026-04-30 01:14 | 22.95883 | 64.96598 | 37755 ft | 458 kts | 270° |
| 2026-04-30 01:14 | 22.95842 | 64.89702 | 37758 ft | 457 kts | 270° |
| 2026-04-30 01:15 | 22.95854 | 64.82804 | 37752 ft | 456 kts | 274° |
| 2026-04-30 01:15 | 22.96522 | 64.75955 | 37757 ft | 456 kts | 277° |
| 2026-04-30 01:16 | 22.97284 | 64.69128 | 37756 ft | 456 kts | 277° |
| 2026-04-30 01:16 | 22.98026 | 64.62285 | 37745 ft | 456 kts | 277° |
| 2026-04-30 01:17 | 22.98747 | 64.55446 | 37759 ft | 456 kts | 277° |
| 2026-04-30 01:17 | 22.99463 | 64.48599 | 37747 ft | 456 kts | 277° |
| 2026-04-30 01:18 | 23.00174 | 64.41759 | 37756 ft | 456 kts | 277° |
| 2026-04-30 01:18 | 23.00885 | 64.34905 | 37758 ft | 457 kts | 276° |
| 2026-04-30 01:19 | 23.01594 | 64.28043 | 37747 ft | 457 kts | 276° |
| 2026-04-30 01:19 | 23.02298 | 64.21193 | 37744 ft | 457 kts | 276° |
| 2026-04-30 01:20 | 23.03001 | 64.14330 | 37760 ft | 457 kts | 276° |
| 2026-04-30 01:20 | 23.03701 | 64.07471 | 37760 ft | 457 kts | 276° |
| 2026-04-30 01:21 | 23.04398 | 64.00605 | 37745 ft | 457 kts | 276° |
| 2026-04-30 01:21 | 23.05087 | 63.93789 | 37757 ft | 457 kts | 276° |
| 2026-04-30 01:22 | 23.05778 | 63.86923 | 37758 ft | 457 kts | 276° |
| 2026-04-30 01:22 | 23.06487 | 63.80060 | 37756 ft | 458 kts | 276° |
| 2026-04-30 01:23 | 23.07209 | 63.73195 | 37741 ft | 458 kts | 276° |
| 2026-04-30 01:23 | 23.07929 | 63.66325 | 37756 ft | 458 kts | 276° |
| 2026-04-30 01:24 | 23.08642 | 63.59453 | 37740 ft | 458 kts | 276° |
| 2026-04-30 01:24 | 23.09237 | 63.53693 | 37750 ft | 458 kts | 276° |
| 2026-04-30 01:25 | 23.09939 | 63.46857 | 37745 ft | 458 kts | 276° |
| 2026-04-30 01:25 | 23.10643 | 63.39980 | 37753 ft | 458 kts | 276° |
| 2026-04-30 01:26 | 23.11345 | 63.33097 | 37738 ft | 458 kts | 276° |
| 2026-04-30 01:26 | 23.12043 | 63.26219 | 37755 ft | 458 kts | 276° |
| 2026-04-30 01:27 | 23.12738 | 63.19338 | 37744 ft | 458 kts | 276° |
| 2026-04-30 01:27 | 23.13429 | 63.12462 | 37746 ft | 458 kts | 275° |
| 2026-04-30 01:28 | 23.14120 | 63.05570 | 37749 ft | 458 kts | 275° |
| 2026-04-30 01:28 | 23.14806 | 62.98685 | 37758 ft | 459 kts | 275° |
| 2026-04-30 01:29 | 23.15490 | 62.91791 | 37742 ft | 459 kts | 275° |
| 2026-04-30 01:29 | 23.16171 | 62.84906 | 37750 ft | 458 kts | 275° |
| 2026-04-30 01:30 | 23.16845 | 62.78049 | 37746 ft | 458 kts | 275° |
| 2026-04-30 01:30 | 23.17519 | 62.71164 | 37754 ft | 458 kts | 275° |
| 2026-04-30 01:31 | 23.18192 | 62.64268 | 37759 ft | 458 kts | 275° |
| 2026-04-30 01:31 | 23.18860 | 62.57381 | 37741 ft | 458 kts | 275° |
| 2026-04-30 01:32 | 23.19526 | 62.50491 | 37744 ft | 458 kts | 275° |
| 2026-04-30 01:32 | 23.20189 | 62.43594 | 37739 ft | 458 kts | 275° |
| 2026-04-30 01:33 | 23.20848 | 62.36702 | 37740 ft | 459 kts | 275° |
| 2026-04-30 01:33 | 23.21505 | 62.29803 | 37750 ft | 459 kts | 275° |
| 2026-04-30 01:34 | 23.22156 | 62.22938 | 37757 ft | 459 kts | 275° |
| 2026-04-30 01:34 | 23.22812 | 62.15986 | 37746 ft | 459 kts | 275° |
| 2026-04-30 01:35 | 23.23457 | 62.09119 | 37743 ft | 460 kts | 275° |
| 2026-04-30 01:35 | 23.24104 | 62.02197 | 37750 ft | 460 kts | 275° |
| 2026-04-30 01:36 | 23.24747 | 61.95280 | 37750 ft | 460 kts | 275° |
| 2026-04-30 01:36 | 23.25388 | 61.88366 | 37758 ft | 460 kts | 275° |
| 2026-04-30 01:37 | 23.26025 | 61.81452 | 37741 ft | 459 kts | 275° |
| 2026-04-30 01:37 | 23.26658 | 61.74548 | 37756 ft | 459 kts | 275° |
| 2026-04-30 01:38 | 23.27287 | 61.67652 | 37754 ft | 458 kts | 275° |
| 2026-04-30 01:38 | 23.27912 | 61.60763 | 37757 ft | 458 kts | 274° |
| 2026-04-30 01:39 | 23.28536 | 61.53864 | 37741 ft | 458 kts | 274° |
| 2026-04-30 01:39 | 23.29155 | 61.46974 | 37741 ft | 457 kts | 274° |
| 2026-04-30 01:40 | 23.29771 | 61.40090 | 37757 ft | 457 kts | 274° |
| 2026-04-30 01:40 | 23.30384 | 61.33202 | 37744 ft | 458 kts | 274° |
| 2026-04-30 01:41 | 23.30994 | 61.26313 | 37753 ft | 458 kts | 274° |
| 2026-04-30 01:41 | 23.31603 | 61.19415 | 37744 ft | 458 kts | 274° |
| 2026-04-30 01:42 | 23.32343 | 61.12528 | 37754 ft | 459 kts | 277° |
| 2026-04-30 01:42 | 23.33259 | 61.05655 | 37744 ft | 459 kts | 277° |
| 2026-04-30 01:43 | 23.34157 | 60.98771 | 37770 ft | 459 kts | 276° |
| 2026-04-30 01:43 | 23.35024 | 60.91877 | 37744 ft | 459 kts | 276° |
| 2026-04-30 01:44 | 23.35879 | 60.84993 | 37750 ft | 459 kts | 276° |
| 2026-04-30 01:44 | 23.36727 | 60.78153 | 37751 ft | 459 kts | 276° |
| 2026-04-30 01:45 | 23.37578 | 60.71278 | 37745 ft | 458 kts | 276° |
| 2026-04-30 01:45 | 23.38678 | 60.64445 | 37748 ft | 459 kts | 283° |
| 2026-04-30 01:46 | 23.40778 | 60.57871 | 37759 ft | 461 kts | 290° |
| 2026-04-30 01:46 | 23.43195 | 60.51390 | 37750 ft | 461 kts | 290° |
| 2026-04-30 01:47 | 23.45598 | 60.44914 | 37746 ft | 462 kts | 290° |
| 2026-04-30 01:47 | 23.47981 | 60.38413 | 37763 ft | 462 kts | 289° |
| 2026-04-30 01:48 | 23.50351 | 60.31908 | 37753 ft | 462 kts | 289° |
| 2026-04-30 01:48 | 23.52718 | 60.25400 | 37750 ft | 462 kts | 289° |
| 2026-04-30 01:49 | 23.55078 | 60.18902 | 37751 ft | 461 kts | 289° |
| 2026-04-30 01:49 | 23.57435 | 60.12404 | 37747 ft | 461 kts | 289° |
| 2026-04-30 01:50 | 23.59789 | 60.05905 | 37752 ft | 461 kts | 289° |
| 2026-04-30 01:50 | 23.62140 | 59.99404 | 37753 ft | 461 kts | 289° |
| 2026-04-30 01:51 | 23.64487 | 59.92904 | 37750 ft | 461 kts | 289° |
| 2026-04-30 01:51 | 23.66834 | 59.86395 | 37760 ft | 461 kts | 289° |
| 2026-04-30 01:52 | 23.69163 | 59.79927 | 37748 ft | 460 kts | 289° |
| 2026-04-30 01:52 | 23.71498 | 59.73429 | 37751 ft | 460 kts | 289° |
| 2026-04-30 01:53 | 23.73828 | 59.66937 | 37752 ft | 459 kts | 289° |
| 2026-04-30 01:53 | 23.76152 | 59.60454 | 37753 ft | 459 kts | 289° |
| 2026-04-30 01:54 | 23.78472 | 59.53969 | 37750 ft | 458 kts | 289° |
| 2026-04-30 01:54 | 23.80794 | 59.47470 | 37751 ft | 458 kts | 289° |
| 2026-04-30 01:55 | 23.83106 | 59.40988 | 37753 ft | 458 kts | 289° |
| 2026-04-30 01:55 | 23.85421 | 59.34490 | 37756 ft | 458 kts | 289° |
| 2026-04-30 01:56 | 23.87727 | 59.28005 | 37753 ft | 458 kts | 288° |
| 2026-04-30 01:56 | 23.90016 | 59.21557 | 37752 ft | 458 kts | 288° |
| 2026-04-30 01:57 | 23.92315 | 59.15075 | 37750 ft | 457 kts | 288° |
| 2026-04-30 01:57 | 23.94520 | 59.08559 | 37750 ft | 456 kts | 287° |
| 2026-04-30 01:58 | 23.96598 | 59.02001 | 37750 ft | 456 kts | 286° |
| 2026-04-30 01:58 | 23.98676 | 58.95451 | 37754 ft | 456 kts | 287° |
| 2026-04-30 01:59 | 24.01819 | 58.85626 | 37760 ft | 456 kts | 287° |
| 2026-04-30 02:00 | 24.03914 | 58.79082 | 37754 ft | 455 kts | 286° |
| 2026-04-30 02:00 | 24.06002 | 58.72544 | 37759 ft | 455 kts | 286° |
| 2026-04-30 02:01 | 24.08086 | 58.66005 | 37760 ft | 454 kts | 286° |
| 2026-04-30 02:01 | 24.10161 | 58.59485 | 37758 ft | 454 kts | 286° |
| 2026-04-30 02:02 | 24.12230 | 58.52966 | 37759 ft | 453 kts | 286° |
| 2026-04-30 02:02 | 24.14281 | 58.46483 | 37768 ft | 453 kts | 286° |
| 2026-04-30 02:03 | 24.16341 | 58.39960 | 37771 ft | 453 kts | 286° |
| 2026-04-30 02:03 | 24.18396 | 58.33442 | 37765 ft | 453 kts | 286° |
| 2026-04-30 02:04 | 24.20452 | 58.26910 | 37766 ft | 453 kts | 286° |
| 2026-04-30 02:04 | 24.22500 | 58.20393 | 37761 ft | 453 kts | 286° |
| 2026-04-30 02:05 | 24.24547 | 58.13867 | 37760 ft | 452 kts | 286° |
| 2026-04-30 02:05 | 24.26590 | 58.07345 | 37767 ft | 452 kts | 286° |
| 2026-04-30 02:06 | 24.28628 | 58.00828 | 37767 ft | 452 kts | 286° |
| 2026-04-30 02:06 | 24.30662 | 57.94312 | 37767 ft | 452 kts | 286° |
| 2026-04-30 02:07 | 24.32695 | 57.87788 | 37770 ft | 452 kts | 285° |
| 2026-04-30 02:07 | 24.34725 | 57.81261 | 37763 ft | 452 kts | 285° |
| 2026-04-30 02:08 | 24.36733 | 57.74803 | 37749 ft | 438 kts | 285° |
| 2026-04-30 02:08 | 24.38339 | 57.69629 | 37751 ft | 428 kts | 285° |
| 2026-04-30 02:09 | 24.40532 | 57.62543 | 37373 ft | 414 kts | 285° |
| 2026-04-30 02:09 | 24.41449 | 57.59573 | 36982 ft | 409 kts | 285° |
| 2026-04-30 02:09 | 24.42357 | 57.56632 | 36567 ft | 405 kts | 285° |
| 2026-04-30 02:09 | 24.43258 | 57.53713 | 36151 ft | 402 kts | 285° |
| 2026-04-30 02:10 | 24.43862 | 57.51755 | 35861 ft | 400 kts | 285° |
| 2026-04-30 02:10 | 24.44752 | 57.48873 | 35436 ft | 397 kts | 285° |
| 2026-04-30 02:10 | 24.45625 | 57.46048 | 34998 ft | 395 kts | 285° |
| 2026-04-30 02:10 | 24.46505 | 57.43197 | 34545 ft | 394 kts | 285° |
| 2026-04-30 02:11 | 24.47382 | 57.40355 | 34097 ft | 392 kts | 285° |
| 2026-04-30 02:11 | 24.48258 | 57.37513 | 33642 ft | 391 kts | 285° |
| 2026-04-30 02:11 | 24.49129 | 57.34683 | 33159 ft | 389 kts | 285° |
| 2026-04-30 02:11 | 24.49993 | 57.31877 | 32706 ft | 387 kts | 285° |
| 2026-04-30 02:12 | 24.50849 | 57.29090 | 32262 ft | 384 kts | 285° |
| 2026-04-30 02:12 | 24.51703 | 57.26313 | 31840 ft | 382 kts | 285° |
| 2026-04-30 02:12 | 24.52549 | 57.23555 | 31407 ft | 380 kts | 285° |
| 2026-04-30 02:12 | 24.53388 | 57.20821 | 30986 ft | 377 kts | 285° |
| 2026-04-30 02:13 | 24.54224 | 57.18092 | 30552 ft | 376 kts | 285° |
| 2026-04-30 02:13 | 24.55056 | 57.15375 | 30135 ft | 374 kts | 285° |
| 2026-04-30 02:13 | 24.55884 | 57.12669 | 29675 ft | 373 kts | 285° |
| 2026-04-30 02:13 | 24.56708 | 57.09977 | 29187 ft | 370 kts | 285° |
| 2026-04-30 02:14 | 24.57524 | 57.07308 | 28737 ft | 368 kts | 285° |
| 2026-04-30 02:14 | 24.58333 | 57.04660 | 28320 ft | 365 kts | 285° |
| 2026-04-30 02:14 | 24.59127 | 57.02060 | 27910 ft | 362 kts | 285° |
| 2026-04-30 02:14 | 24.59933 | 56.99417 | 27497 ft | 359 kts | 285° |
| 2026-04-30 02:15 | 24.60723 | 56.96823 | 27093 ft | 356 kts | 285° |
| 2026-04-30 02:15 | 24.61495 | 56.94287 | 26703 ft | 354 kts | 285° |
| 2026-04-30 02:15 | 24.62272 | 56.91735 | 26327 ft | 351 kts | 285° |
| 2026-04-30 02:15 | 24.63046 | 56.89191 | 25932 ft | 349 kts | 285° |
| 2026-04-30 02:16 | 24.63812 | 56.86671 | 25540 ft | 347 kts | 285° |
| 2026-04-30 02:16 | 24.64491 | 56.84147 | 25142 ft | 343 kts | 280° |
| 2026-04-30 02:16 | 24.64919 | 56.81587 | 24764 ft | 339 kts | 276° |
| 2026-04-30 02:16 | 24.65263 | 56.79030 | 24388 ft | 338 kts | 275° |
| 2026-04-30 02:17 | 24.65605 | 56.76473 | 23998 ft | 336 kts | 275° |
| 2026-04-30 02:17 | 24.65945 | 56.73937 | 23617 ft | 335 kts | 275° |
| 2026-04-30 02:17 | 24.66287 | 56.71402 | 23225 ft | 335 kts | 275° |
| 2026-04-30 02:17 | 24.66626 | 56.68904 | 22797 ft | 333 kts | 276° |
| 2026-04-30 02:18 | 24.66967 | 56.66395 | 22404 ft | 331 kts | 276° |
| 2026-04-30 02:18 | 24.67307 | 56.63903 | 22015 ft | 328 kts | 276° |
| 2026-04-30 02:18 | 24.67643 | 56.61429 | 21652 ft | 326 kts | 276° |
| 2026-04-30 02:18 | 24.67978 | 56.58968 | 21274 ft | 324 kts | 276° |
| 2026-04-30 02:19 | 24.68310 | 56.56526 | 20908 ft | 322 kts | 276° |
| 2026-04-30 02:19 | 24.68639 | 56.54095 | 20536 ft | 321 kts | 276° |
| 2026-04-30 02:19 | 24.68968 | 56.51674 | 20177 ft | 319 kts | 276° |
| 2026-04-30 02:19 | 24.69298 | 56.49267 | 19816 ft | 318 kts | 276° |
| 2026-04-30 02:20 | 24.69627 | 56.46864 | 19444 ft | 317 kts | 276° |
| 2026-04-30 02:20 | 24.69956 | 56.44466 | 19081 ft | 317 kts | 276° |
| 2026-04-30 02:20 | 24.70282 | 56.42077 | 18695 ft | 316 kts | 277° |
| 2026-04-30 02:20 | 24.70609 | 56.39684 | 18339 ft | 316 kts | 277° |
| 2026-04-30 02:21 | 24.70932 | 56.37323 | 17946 ft | 316 kts | 277° |
| 2026-04-30 02:21 | 24.71258 | 56.34931 | 17543 ft | 316 kts | 277° |
| 2026-04-30 02:21 | 24.71583 | 56.32544 | 17159 ft | 314 kts | 277° |
| 2026-04-30 02:21 | 24.72107 | 56.30217 | 16810 ft | 315 kts | 287° |
| 2026-04-30 02:22 | 24.72988 | 56.28010 | 16428 ft | 317 kts | 295° |
| 2026-04-30 02:22 | 24.74082 | 56.25906 | 16075 ft | 317 kts | 296° |
| 2026-04-30 02:22 | 24.75187 | 56.23811 | 15711 ft | 316 kts | 297° |
| 2026-04-30 02:22 | 24.76286 | 56.21714 | 15339 ft | 315 kts | 296° |
| 2026-04-30 02:23 | 24.77379 | 56.19612 | 14969 ft | 315 kts | 296° |
| 2026-04-30 02:23 | 24.78461 | 56.17523 | 14623 ft | 313 kts | 296° |
| 2026-04-30 02:23 | 24.79536 | 56.15441 | 14252 ft | 313 kts | 296° |
| 2026-04-30 02:23 | 24.80611 | 56.13352 | 13897 ft | 314 kts | 296° |
| 2026-04-30 02:24 | 24.81683 | 56.11258 | 13504 ft | 315 kts | 296° |
| 2026-04-30 02:24 | 24.82759 | 56.09156 | 13117 ft | 314 kts | 296° |
| 2026-04-30 02:24 | 24.83830 | 56.07066 | 12743 ft | 314 kts | 296° |
| 2026-04-30 02:24 | 24.84822 | 56.04950 | 12359 ft | 306 kts | 287° |
| 2026-04-30 02:25 | 24.85198 | 56.02675 | 12016 ft | 302 kts | 269° |
| 2026-04-30 02:25 | 24.85052 | 56.00377 | 11679 ft | 300 kts | 263° |
| 2026-04-30 02:25 | 24.84796 | 55.98132 | 11350 ft | 300 kts | 262° |
| 2026-04-30 02:25 | 24.84516 | 55.95865 | 11076 ft | 297 kts | 261° |
| 2026-04-30 02:26 | 24.84234 | 55.93599 | 10783 ft | 294 kts | 261° |
| 2026-04-30 02:26 | 24.83958 | 55.91366 | 10473 ft | 294 kts | 261° |
| 2026-04-30 02:26 | 24.83688 | 55.89142 | 10214 ft | 291 kts | 261° |
| 2026-04-30 02:26 | 24.83431 | 55.86999 | 10093 ft | 283 kts | 262° |
| 2026-04-30 02:27 | 24.83176 | 55.84864 | 9818 ft | 281 kts | 261° |
| 2026-04-30 02:27 | 24.82922 | 55.82726 | 9501 ft | 281 kts | 261° |
| 2026-04-30 02:27 | 24.82670 | 55.80600 | 9170 ft | 280 kts | 262° |
| 2026-04-30 02:27 | 24.82418 | 55.78472 | 8846 ft | 280 kts | 262° |
| 2026-04-30 02:28 | 24.82175 | 55.76412 | 8514 ft | 262 kts | 262° |
| 2026-04-30 02:28 | 24.81947 | 55.74473 | 8226 ft | 254 kts | 262° |
| 2026-04-30 02:28 | 24.81718 | 55.72539 | 7953 ft | 256 kts | 262° |
| 2026-04-30 02:28 | 24.81484 | 55.70566 | 7670 ft | 263 kts | 262° |
| 2026-04-30 02:29 | 24.81245 | 55.68548 | 7367 ft | 267 kts | 262° |
| 2026-04-30 02:29 | 24.81005 | 55.66520 | 7069 ft | 265 kts | 262° |
| 2026-04-30 02:29 | 24.80768 | 55.64523 | 6760 ft | 261 kts | 262° |
| 2026-04-30 02:29 | 24.80535 | 55.62557 | 6460 ft | 257 kts | 262° |
| 2026-04-30 02:30 | 24.80304 | 55.60621 | 6158 ft | 253 kts | 263° |
| 2026-04-30 02:30 | 24.80078 | 55.58716 | 5874 ft | 248 kts | 263° |
| 2026-04-30 02:30 | 24.79855 | 55.56848 | 5598 ft | 246 kts | 263° |
| 2026-04-30 02:30 | 24.79631 | 55.54966 | 5313 ft | 251 kts | 263° |
| 2026-04-30 02:31 | 24.79405 | 55.53066 | 5040 ft | 256 kts | 263° |
| 2026-04-30 02:31 | 24.79170 | 55.51096 | 4734 ft | 255 kts | 263° |
| 2026-04-30 02:31 | 24.78943 | 55.49201 | 4437 ft | 250 kts | 264° |
| 2026-04-30 02:31 | 24.78717 | 55.47319 | 4138 ft | 245 kts | 264° |
| 2026-04-30 02:32 | 24.78496 | 55.45474 | 3864 ft | 242 kts | 264° |
| 2026-04-30 02:32 | 24.78277 | 55.43650 | 3617 ft | 237 kts | 265° |
| 2026-04-30 02:32 | 24.78065 | 55.41890 | 3438 ft | 227 kts | 265° |
| 2026-04-30 02:32 | 24.77859 | 55.40185 | 3192 ft | 222 kts | 266° |
| 2026-04-30 02:33 | 24.77751 | 55.38535 | 3142 ft | 216 kts | 282° |
| 2026-04-30 02:33 | 24.78255 | 55.37024 | 3085 ft | 205 kts | 300° |
| 2026-04-30 02:33 | 24.78893 | 55.35680 | 3025 ft | 189 kts | 302° |
| 2026-04-30 02:33 | 24.79505 | 55.34509 | 2984 ft | 164 kts | 304° |
| 2026-04-30 02:34 | 24.80056 | 55.33498 | 2993 ft | 147 kts | 306° |
| 2026-04-30 02:34 | 24.80579 | 55.32550 | 2999 ft | 144 kts | 306° |
| 2026-04-30 02:34 | 24.81109 | 55.31592 | 2875 ft | 148 kts | 306° |
| 2026-04-30 02:34 | 24.81641 | 55.30628 | 2662 ft | 146 kts | 306° |
| 2026-04-30 02:35 | 24.82164 | 55.29680 | 2469 ft | 144 kts | 306° |
| 2026-04-30 02:35 | 24.82683 | 55.28742 | 2302 ft | 143 kts | 307° |
| 2026-04-30 02:35 | 24.83203 | 55.27802 | 2118 ft | 144 kts | 307° |
| 2026-04-30 02:35 | 24.83725 | 55.26857 | 1947 ft | 145 kts | 306° |
| 2026-04-30 02:36 | 24.84246 | 55.25912 | 1748 ft | 144 kts | 306° |
| 2026-04-30 02:36 | 24.84766 | 55.24970 | 1567 ft | 144 kts | 306° |
| 2026-04-30 02:36 | 24.85284 | 55.24031 | 1383 ft | 143 kts | 306° |
| 2026-04-30 02:36 | 24.85802 | 55.23093 | 1206 ft | 143 kts | 305° |
| 2026-04-30 02:37 | 24.86321 | 55.22151 | 1030 ft | 145 kts | 304° |
| 2026-04-30 02:37 | 24.86851 | 55.21194 | 848 ft | 147 kts | 302° |
| 2026-04-30 02:37 | 24.87390 | 55.20214 | 664 ft | 151 kts | 301° |
| 2026-04-30 02:37 | 24.87931 | 55.19233 | 469 ft | 152 kts | 301° |
| 2026-04-30 02:38 | 24.88478 | 55.18243 | 277 ft | 151 kts | 301° |
| 2026-04-30 02:38 | 24.89021 | 55.17259 | 157 ft | 144 kts | 301° |
| 2026-04-30 02:38 | 24.89474 | 55.16445 | 143 ft | 109 kts | 301° |
| 2026-04-30 02:38 | 24.89721 | 55.16004 | 137 ft | 13 kts | 301° |
| 2026-04-30 02:39 | 24.89753 | 55.15945 | 137 ft | 8 kts | 301° |
| 2026-04-30 02:39 | 24.89769 | 55.15883 | 133 ft | 9 kts | 282° |
| 2026-04-30 02:39 | 24.89780 | 55.15804 | 128 ft | 11 kts | 274° |
| 2026-04-30 02:39 | 24.89783 | 55.15738 | 128 ft | 8 kts | 272° |
| 2026-04-30 02:40 | 24.89784 | 55.15700 | 131 ft | 0 kts | 272° |
| 2026-04-30 02:40 | 24.89785 | 55.15695 | 132 ft | 2 kts | 272° |
| 2026-04-30 02:40 | 24.89785 | 55.15675 | 134 ft | 4 kts | 272° |
| 2026-04-30 02:40 | 24.89786 | 55.15659 | 134 ft | 0 kts | 272° |